sensor_id;sensor_type;location;lat;lon;timestamp;noise_LAeq;noise_LA_min;noise_LA_max;noise_LA01;noise_LA95
68945;Laerm;55984;48.790;8.990;2023-07-28T00:02:19;50.56;49.27;52.65;;
68945;Laerm;55984;48.790;8.990;2023-07-28T00:04:45;50.54;48.84;53.59;;
68945;Laerm;55984;48.790;8.990;2023-07-28T00:07:13;50.72;49.03;53.37;;
68945;Laerm;55984;48.790;8.990;2023-07-28T00:09:39;50.36;49.28;53.77;;
68945;Laerm;55984;48.790;8.990;2023-07-28T00:12:05;50.52;48.97;53.15;;
68945;Laerm;55984;48.790;8.990;2023-07-28T00:14:31;50.38;49.01;52.86;;
68945;Laerm;55984;48.790;8.990;2023-07-28T00:16:57;50.42;49.08;53.28;;
68945;Laerm;55984;48.790;8.990;2023-07-28T00:19:23;50.21;48.57;54.27;;
68945;Laerm;55984;48.790;8.990;2023-07-28T00:21:50;50.03;48.53;52.55;;
68945;Laerm;55984;48.790;8.990;2023-07-28T00:24:17;50.17;48.64;52.22;;
68945;Laerm;55984;48.790;8.990;2023-07-28T00:26:43;50.23;48.60;52.77;;
68945;Laerm;55984;48.790;8.990;2023-07-28T00:29:09;49.85;48.48;52.70;;
68945;Laerm;55984;48.790;8.990;2023-07-28T00:31:36;49.87;48.70;53.75;;
68945;Laerm;55984;48.790;8.990;2023-07-28T00:34:03;49.95;48.74;52.73;;
68945;Laerm;55984;48.790;8.990;2023-07-28T00:36:30;49.84;48.72;52.16;;
68945;Laerm;55984;48.790;8.990;2023-07-28T00:38:56;49.71;48.53;52.03;;
68945;Laerm;55984;48.790;8.990;2023-07-28T00:41:22;49.66;48.69;53.24;;
68945;Laerm;55984;48.790;8.990;2023-07-28T00:43:48;49.72;48.69;52.76;;
68945;Laerm;55984;48.790;8.990;2023-07-28T00:46:14;49.84;48.72;52.97;;
68945;Laerm;55984;48.790;8.990;2023-07-28T00:48:41;49.81;48.68;52.41;;
68945;Laerm;55984;48.790;8.990;2023-07-28T00:51:07;49.92;48.57;52.63;;
68945;Laerm;55984;48.790;8.990;2023-07-28T00:53:34;49.98;48.65;52.41;;
68945;Laerm;55984;48.790;8.990;2023-07-28T00:56:02;50.02;48.71;52.26;;
68945;Laerm;55984;48.790;8.990;2023-07-28T00:58:29;50.13;48.87;53.28;;
68945;Laerm;55984;48.790;8.990;2023-07-28T01:00:55;50.46;48.97;52.89;;
68945;Laerm;55984;48.790;8.990;2023-07-28T01:03:22;50.28;49.10;51.71;;
68945;Laerm;55984;48.790;8.990;2023-07-28T01:06:13;50.15;49.03;52.92;;
68945;Laerm;55984;48.790;8.990;2023-07-28T01:08:56;50.11;48.93;52.10;;
68945;Laerm;55984;48.790;8.990;2023-07-28T01:11:23;50.26;49.10;53.35;;
68945;Laerm;55984;48.790;8.990;2023-07-28T01:13:49;50.18;49.08;52.95;;
68945;Laerm;55984;48.790;8.990;2023-07-28T01:16:22;50.29;48.96;52.69;;
68945;Laerm;55984;48.790;8.990;2023-07-28T01:18:48;50.23;48.91;53.20;;
68945;Laerm;55984;48.790;8.990;2023-07-28T01:21:23;50.32;48.79;52.74;;
68945;Laerm;55984;48.790;8.990;2023-07-28T01:24:15;50.43;48.80;53.26;;
68945;Laerm;55984;48.790;8.990;2023-07-28T01:26:47;50.46;49.18;52.53;;
68945;Laerm;55984;48.790;8.990;2023-07-28T01:29:14;50.50;49.18;53.95;;
68945;Laerm;55984;48.790;8.990;2023-07-28T01:31:41;50.44;48.91;53.08;;
68945;Laerm;55984;48.790;8.990;2023-07-28T01:34:07;50.28;48.89;53.37;;
68945;Laerm;55984;48.790;8.990;2023-07-28T01:36:33;50.18;48.17;53.60;;
68945;Laerm;55984;48.790;8.990;2023-07-28T01:38:59;50.35;48.90;53.27;;
68945;Laerm;55984;48.790;8.990;2023-07-28T01:41:25;49.98;48.55;53.17;;
68945;Laerm;55984;48.790;8.990;2023-07-28T01:43:51;49.84;48.59;53.91;;
68945;Laerm;55984;48.790;8.990;2023-07-28T01:46:21;49.65;48.63;52.99;;
68945;Laerm;55984;48.790;8.990;2023-07-28T01:48:47;50.56;48.40;62.05;;
68945;Laerm;55984;48.790;8.990;2023-07-28T01:51:13;49.35;48.18;52.03;;
68945;Laerm;55984;48.790;8.990;2023-07-28T01:53:39;49.50;48.26;53.66;;
68945;Laerm;55984;48.790;8.990;2023-07-28T01:56:05;49.50;48.37;53.23;;
68945;Laerm;55984;48.790;8.990;2023-07-28T01:58:30;49.43;48.34;52.57;;
68945;Laerm;55984;48.790;8.990;2023-07-28T02:00:56;49.75;48.33;53.07;;
68945;Laerm;55984;48.790;8.990;2023-07-28T02:03:22;54.27;48.67;58.88;;
68945;Laerm;55984;48.790;8.990;2023-07-28T02:05:48;56.11;53.10;58.98;;
68945;Laerm;55984;48.790;8.990;2023-07-28T02:08:18;56.40;53.99;59.06;;
68945;Laerm;55984;48.790;8.990;2023-07-28T02:10:44;56.42;53.31;58.94;;
68945;Laerm;55984;48.790;8.990;2023-07-28T02:13:10;56.86;53.31;59.64;;
68945;Laerm;55984;48.790;8.990;2023-07-28T02:15:36;56.94;52.92;60.25;;
68945;Laerm;55984;48.790;8.990;2023-07-28T02:18:02;56.97;50.02;60.36;;
68945;Laerm;55984;48.790;8.990;2023-07-28T02:20:29;56.16;51.02;59.53;;
68945;Laerm;55984;48.790;8.990;2023-07-28T02:22:55;55.44;50.64;58.96;;
68945;Laerm;55984;48.790;8.990;2023-07-28T02:25:21;55.10;49.58;57.29;;
68945;Laerm;55984;48.790;8.990;2023-07-28T02:27:47;54.24;48.63;58.00;;
68945;Laerm;55984;48.790;8.990;2023-07-28T02:30:13;50.08;48.79;51.84;;
68945;Laerm;55984;48.790;8.990;2023-07-28T02:32:39;50.08;48.74;51.88;;
68945;Laerm;55984;48.790;8.990;2023-07-28T02:35:05;50.22;48.82;51.80;;
68945;Laerm;55984;48.790;8.990;2023-07-28T02:37:31;49.97;48.56;51.75;;
68945;Laerm;55984;48.790;8.990;2023-07-28T02:39:57;49.95;48.69;51.85;;
68945;Laerm;55984;48.790;8.990;2023-07-28T02:42:23;49.93;48.54;52.11;;
68945;Laerm;55984;48.790;8.990;2023-07-28T02:44:50;49.63;48.54;51.40;;
68945;Laerm;55984;48.790;8.990;2023-07-28T02:47:16;51.79;48.41;56.04;;
68945;Laerm;55984;48.790;8.990;2023-07-28T02:49:42;52.84;49.16;55.93;;
68945;Laerm;55984;48.790;8.990;2023-07-28T02:52:08;52.21;49.12;55.22;;
68945;Laerm;55984;48.790;8.990;2023-07-28T02:54:38;52.33;49.20;55.70;;
68945;Laerm;55984;48.790;8.990;2023-07-28T02:57:04;52.52;49.46;56.42;;
68945;Laerm;55984;48.790;8.990;2023-07-28T02:59:30;51.75;49.19;56.49;;
68945;Laerm;55984;48.790;8.990;2023-07-28T03:01:56;50.86;48.72;53.96;;
68945;Laerm;55984;48.790;8.990;2023-07-28T03:04:22;52.06;49.05;56.28;;
68945;Laerm;55984;48.790;8.990;2023-07-28T03:06:48;51.43;48.96;55.94;;
68945;Laerm;55984;48.790;8.990;2023-07-28T03:09:14;51.68;49.22;55.98;;
68945;Laerm;55984;48.790;8.990;2023-07-28T03:11:44;52.03;49.32;54.79;;
68945;Laerm;55984;48.790;8.990;2023-07-28T03:14:10;50.98;48.77;54.72;;
68945;Laerm;55984;48.790;8.990;2023-07-28T03:16:38;50.24;48.89;52.01;;
68945;Laerm;55984;48.790;8.990;2023-07-28T03:19:07;50.17;48.67;52.19;;
68945;Laerm;55984;48.790;8.990;2023-07-28T03:21:33;52.23;48.87;61.24;;
68945;Laerm;55984;48.790;8.990;2023-07-28T03:23:59;51.62;49.61;61.81;;
68945;Laerm;55984;48.790;8.990;2023-07-28T03:26:25;62.12;50.11;70.65;;
68945;Laerm;55984;48.790;8.990;2023-07-28T03:28:51;52.00;49.89;54.40;;
68945;Laerm;55984;48.790;8.990;2023-07-28T03:31:16;54.85;50.01;61.03;;
68945;Laerm;55984;48.790;8.990;2023-07-28T03:33:42;55.35;51.21;60.86;;
68945;Laerm;55984;48.790;8.990;2023-07-28T03:36:08;57.42;51.73;63.77;;
68945;Laerm;55984;48.790;8.990;2023-07-28T03:38:34;55.94;49.42;62.69;;
68945;Laerm;55984;48.790;8.990;2023-07-28T03:41:00;52.57;49.03;61.66;;
68945;Laerm;55984;48.790;8.990;2023-07-28T03:43:26;53.58;49.07;61.07;;
68945;Laerm;55984;48.790;8.990;2023-07-28T03:45:52;51.43;49.13;61.42;;
68945;Laerm;55984;48.790;8.990;2023-07-28T03:48:18;51.50;49.20;57.12;;
68945;Laerm;55984;48.790;8.990;2023-07-28T03:50:44;51.36;49.36;56.28;;
68945;Laerm;55984;48.790;8.990;2023-07-28T03:53:11;52.60;49.47;55.99;;
68945;Laerm;55984;48.790;8.990;2023-07-28T03:55:37;53.02;50.09;56.03;;
68945;Laerm;55984;48.790;8.990;2023-07-28T03:58:03;52.87;49.85;55.79;;
68945;Laerm;55984;48.790;8.990;2023-07-28T04:00:29;51.33;48.74;57.40;;
68945;Laerm;55984;48.790;8.990;2023-07-28T04:02:55;53.42;49.37;61.21;;
68945;Laerm;55984;48.790;8.990;2023-07-28T04:05:21;56.97;49.75;59.95;;
68945;Laerm;55984;48.790;8.990;2023-07-28T04:07:47;55.71;49.19;59.41;;
68945;Laerm;55984;48.790;8.990;2023-07-28T04:10:13;55.68;49.22;59.66;;
68945;Laerm;55984;48.790;8.990;2023-07-28T04:12:39;54.85;49.86;59.79;;
68945;Laerm;55984;48.790;8.990;2023-07-28T04:15:05;52.63;49.39;58.45;;
68945;Laerm;55984;48.790;8.990;2023-07-28T04:17:31;54.73;49.74;60.94;;
68945;Laerm;55984;48.790;8.990;2023-07-28T04:20:01;53.88;49.83;63.32;;
68945;Laerm;55984;48.790;8.990;2023-07-28T04:22:27;52.59;49.43;58.76;;
68945;Laerm;55984;48.790;8.990;2023-07-28T04:24:53;52.25;49.51;58.01;;
68945;Laerm;55984;48.790;8.990;2023-07-28T04:27:19;53.69;49.70;60.61;;
68945;Laerm;55984;48.790;8.990;2023-07-28T04:29:45;53.63;50.40;58.55;;
68945;Laerm;55984;48.790;8.990;2023-07-28T04:32:11;54.62;49.22;61.33;;
68945;Laerm;55984;48.790;8.990;2023-07-28T04:34:36;58.09;49.39;69.18;;
68945;Laerm;55984;48.790;8.990;2023-07-28T04:37:02;59.39;54.36;64.52;;
68945;Laerm;55984;48.790;8.990;2023-07-28T04:39:28;60.84;55.58;65.56;;
68945;Laerm;55984;48.790;8.990;2023-07-28T04:41:54;60.16;57.87;62.87;;
68945;Laerm;55984;48.790;8.990;2023-07-28T04:44:20;57.30;50.45;65.55;;
68945;Laerm;55984;48.790;8.990;2023-07-28T04:46:46;54.39;51.15;62.06;;
68945;Laerm;55984;48.790;8.990;2023-07-28T04:49:13;55.09;50.29;64.74;;
68945;Laerm;55984;48.790;8.990;2023-07-28T04:51:39;54.40;49.62;64.01;;
68945;Laerm;55984;48.790;8.990;2023-07-28T04:54:05;57.93;49.18;60.73;;
68945;Laerm;55984;48.790;8.990;2023-07-28T04:56:30;59.48;50.24;63.51;;
68945;Laerm;55984;48.790;8.990;2023-07-28T04:58:56;57.14;50.28;60.48;;
68945;Laerm;55984;48.790;8.990;2023-07-28T05:01:24;57.38;54.39;61.24;;
68945;Laerm;55984;48.790;8.990;2023-07-28T05:03:50;55.37;48.96;62.55;;
68945;Laerm;55984;48.790;8.990;2023-07-28T05:06:16;56.46;49.59;65.11;;
68945;Laerm;55984;48.790;8.990;2023-07-28T05:08:42;57.12;49.24;62.09;;
68945;Laerm;55984;48.790;8.990;2023-07-28T05:11:08;54.78;48.89;61.11;;
68945;Laerm;55984;48.790;8.990;2023-07-28T05:13:37;54.24;48.76;65.43;;
68945;Laerm;55984;48.790;8.990;2023-07-28T05:16:03;51.15;48.92;55.19;;
68945;Laerm;55984;48.790;8.990;2023-07-28T05:18:29;51.37;48.52;56.70;;
68945;Laerm;55984;48.790;8.990;2023-07-28T05:20:55;54.86;49.10;64.07;;
68945;Laerm;55984;48.790;8.990;2023-07-28T05:23:21;52.06;48.65;58.36;;
68945;Laerm;55984;48.790;8.990;2023-07-28T05:25:46;49.62;48.53;52.22;;
68945;Laerm;55984;48.790;8.990;2023-07-28T05:28:12;49.53;48.50;52.01;;
68945;Laerm;55984;48.790;8.990;2023-07-28T05:30:38;49.58;48.32;58.10;;
68945;Laerm;55984;48.790;8.990;2023-07-28T05:33:05;49.47;48.37;54.35;;
68945;Laerm;55984;48.790;8.990;2023-07-28T05:35:32;49.48;48.28;55.04;;
68945;Laerm;55984;48.790;8.990;2023-07-28T05:37:57;49.52;48.13;65.44;;
68945;Laerm;55984;48.790;8.990;2023-07-28T05:40:23;49.38;48.15;53.77;;
68945;Laerm;55984;48.790;8.990;2023-07-28T05:42:49;50.77;48.21;65.12;;
68945;Laerm;55984;48.790;8.990;2023-07-28T05:45:16;49.42;48.30;60.04;;
68945;Laerm;55984;48.790;8.990;2023-07-28T05:47:42;49.46;48.44;53.60;;
68945;Laerm;55984;48.790;8.990;2023-07-28T05:50:14;49.40;48.15;54.35;;
68945;Laerm;55984;48.790;8.990;2023-07-28T05:52:41;49.59;48.26;58.36;;
68945;Laerm;55984;48.790;8.990;2023-07-28T05:55:07;52.49;48.52;59.77;;
68945;Laerm;55984;48.790;8.990;2023-07-28T05:57:33;51.91;48.69;56.04;;
68945;Laerm;55984;48.790;8.990;2023-07-28T05:59:59;52.24;48.76;65.65;;
68945;Laerm;55984;48.790;8.990;2023-07-28T06:02:25;49.87;48.21;55.84;;
68945;Laerm;55984;48.790;8.990;2023-07-28T06:04:52;49.62;48.36;57.19;;
68945;Laerm;55984;48.790;8.990;2023-07-28T06:07:18;49.33;48.46;51.67;;
68945;Laerm;55984;48.790;8.990;2023-07-28T06:09:44;49.43;48.34;51.08;;
68945;Laerm;55984;48.790;8.990;2023-07-28T06:12:10;49.58;48.56;51.72;;
68945;Laerm;55984;48.790;8.990;2023-07-28T06:14:36;49.37;48.21;51.90;;
68945;Laerm;55984;48.790;8.990;2023-07-28T06:17:02;49.67;48.47;52.72;;
68945;Laerm;55984;48.790;8.990;2023-07-28T06:19:28;49.44;48.25;55.31;;
68945;Laerm;55984;48.790;8.990;2023-07-28T06:21:53;53.73;49.07;64.58;;
68945;Laerm;55984;48.790;8.990;2023-07-28T06:24:20;54.72;51.26;60.48;;
68945;Laerm;55984;48.790;8.990;2023-07-28T06:26:45;54.91;53.50;60.09;;
68945;Laerm;55984;48.790;8.990;2023-07-28T06:29:11;54.16;52.45;55.32;;
68945;Laerm;55984;48.790;8.990;2023-07-28T06:31:37;53.78;51.78;59.98;;
68945;Laerm;55984;48.790;8.990;2023-07-28T06:34:03;53.38;52.26;56.18;;
68945;Laerm;55984;48.790;8.990;2023-07-28T06:36:29;52.13;49.04;62.87;;
68945;Laerm;55984;48.790;8.990;2023-07-28T06:38:55;57.11;49.48;63.99;;
68945;Laerm;55984;48.790;8.990;2023-07-28T06:41:21;51.51;48.77;61.25;;
68945;Laerm;55984;48.790;8.990;2023-07-28T06:43:47;50.95;48.55;60.33;;
68945;Laerm;55984;48.790;8.990;2023-07-28T06:46:16;52.98;48.64;64.46;;
68945;Laerm;55984;48.790;8.990;2023-07-28T06:48:42;56.77;48.76;72.91;;
68945;Laerm;55984;48.790;8.990;2023-07-28T06:51:08;50.32;48.33;61.80;;
68945;Laerm;55984;48.790;8.990;2023-07-28T06:53:34;61.63;49.02;66.18;;
68945;Laerm;55984;48.790;8.990;2023-07-28T06:56:00;65.78;48.64;75.63;;
68945;Laerm;55984;48.790;8.990;2023-07-28T06:58:26;74.67;63.73;76.81;;
68945;Laerm;55984;48.790;8.990;2023-07-28T07:00:52;72.77;63.83;75.72;;
68945;Laerm;55984;48.790;8.990;2023-07-28T07:03:20;70.98;64.55;74.32;;
68945;Laerm;55984;48.790;8.990;2023-07-28T07:05:46;71.51;66.81;74.47;;
68945;Laerm;55984;48.790;8.990;2023-07-28T07:08:12;71.07;59.70;73.89;;
68945;Laerm;55984;48.790;8.990;2023-07-28T07:10:38;71.72;67.54;74.44;;
68945;Laerm;55984;48.790;8.990;2023-07-28T07:13:04;72.07;65.23;74.76;;
68945;Laerm;55984;48.790;8.990;2023-07-28T07:15:30;73.46;52.29;75.60;;
68945;Laerm;55984;48.790;8.990;2023-07-28T07:17:56;69.01;49.42;75.28;;
68945;Laerm;55984;48.790;8.990;2023-07-28T07:20:22;60.22;54.95;62.31;;
68945;Laerm;55984;48.790;8.990;2023-07-28T07:22:47;59.59;56.73;61.51;;
68945;Laerm;55984;48.790;8.990;2023-07-28T07:25:13;61.44;49.22;63.16;;
68945;Laerm;55984;48.790;8.990;2023-07-28T07:27:39;62.08;56.61;63.64;;
68945;Laerm;55984;48.790;8.990;2023-07-28T07:30:05;63.02;58.57;64.99;;
68945;Laerm;55984;48.790;8.990;2023-07-28T07:32:32;63.66;61.62;65.14;;
68945;Laerm;55984;48.790;8.990;2023-07-28T07:34:59;64.37;48.88;68.79;;
68945;Laerm;55984;48.790;8.990;2023-07-28T07:37:25;52.29;48.36;68.59;;
68945;Laerm;55984;48.790;8.990;2023-07-28T07:39:51;52.17;48.52;69.51;;
68945;Laerm;55984;48.790;8.990;2023-07-28T07:42:20;62.43;48.46;79.38;;
68945;Laerm;55984;48.790;8.990;2023-07-28T07:44:46;56.03;49.59;69.04;;
68945;Laerm;55984;48.790;8.990;2023-07-28T07:47:13;61.62;49.56;74.91;;
68945;Laerm;55984;48.790;8.990;2023-07-28T07:49:40;54.88;48.94;73.83;;
68945;Laerm;55984;48.790;8.990;2023-07-28T07:52:08;59.54;49.41;74.66;;
68945;Laerm;55984;48.790;8.990;2023-07-28T07:54:35;74.69;50.08;81.64;;
68945;Laerm;55984;48.790;8.990;2023-07-28T07:57:01;58.78;49.65;74.19;;
68945;Laerm;55984;48.790;8.990;2023-07-28T07:59:28;58.90;48.69;74.93;;
68945;Laerm;55984;48.790;8.990;2023-07-28T08:01:56;55.07;49.40;65.23;;
68945;Laerm;55984;48.790;8.990;2023-07-28T08:04:25;58.46;48.97;73.21;;
68945;Laerm;55984;48.790;8.990;2023-07-28T08:06:51;60.98;49.23;73.39;;
68945;Laerm;55984;48.790;8.990;2023-07-28T08:09:16;57.23;49.23;69.88;;
68945;Laerm;55984;48.790;8.990;2023-07-28T08:11:44;55.33;49.10;67.55;;
68945;Laerm;55984;48.790;8.990;2023-07-28T08:14:10;60.16;50.35;71.61;;
68945;Laerm;55984;48.790;8.990;2023-07-28T08:16:36;54.27;49.40;68.84;;
68945;Laerm;55984;48.790;8.990;2023-07-28T08:19:02;55.25;49.02;70.57;;
68945;Laerm;55984;48.790;8.990;2023-07-28T08:21:29;61.96;49.61;74.14;;
68945;Laerm;55984;48.790;8.990;2023-07-28T08:24:02;58.34;49.35;68.47;;
68945;Laerm;55984;48.790;8.990;2023-07-28T08:26:29;53.15;49.44;65.19;;
68945;Laerm;55984;48.790;8.990;2023-07-28T08:28:55;53.04;49.41;63.27;;
68945;Laerm;55984;48.790;8.990;2023-07-28T08:31:21;59.56;49.97;69.31;;
68945;Laerm;55984;48.790;8.990;2023-07-28T08:33:47;62.29;51.39;72.04;;
68945;Laerm;55984;48.790;8.990;2023-07-28T08:36:13;55.29;49.71;71.94;;
68945;Laerm;55984;48.790;8.990;2023-07-28T08:38:40;53.07;49.20;62.46;;
68945;Laerm;55984;48.790;8.990;2023-07-28T08:41:06;54.87;49.04;68.93;;
68945;Laerm;55984;48.790;8.990;2023-07-28T08:43:32;53.93;48.75;67.64;;
68945;Laerm;55984;48.790;8.990;2023-07-28T08:45:58;61.98;48.76;74.35;;
68945;Laerm;55984;48.790;8.990;2023-07-28T08:48:29;56.93;48.59;73.93;;
68945;Laerm;55984;48.790;8.990;2023-07-28T08:50:55;56.36;48.79;65.04;;
68945;Laerm;55984;48.790;8.990;2023-07-28T08:53:22;56.88;50.02;65.32;;
68945;Laerm;55984;48.790;8.990;2023-07-28T08:55:48;59.06;49.30;71.11;;
68945;Laerm;55984;48.790;8.990;2023-07-28T08:58:18;54.92;49.07;71.46;;
68945;Laerm;55984;48.790;8.990;2023-07-28T09:00:46;59.09;48.87;72.56;;
68945;Laerm;55984;48.790;8.990;2023-07-28T09:03:15;55.18;48.93;71.19;;
68945;Laerm;55984;48.790;8.990;2023-07-28T09:06:02;56.44;49.17;71.44;;
68945;Laerm;55984;48.790;8.990;2023-07-28T09:08:35;50.61;48.94;53.69;;
68945;Laerm;55984;48.790;8.990;2023-07-28T09:11:03;49.85;48.40;58.30;;
68945;Laerm;55984;48.790;8.990;2023-07-28T09:13:41;49.70;48.48;54.42;;
68945;Laerm;55984;48.790;8.990;2023-07-28T09:16:20;55.38;48.75;69.36;;
68945;Laerm;55984;48.790;8.990;2023-07-28T09:18:47;52.37;48.66;63.44;;
68945;Laerm;55984;48.790;8.990;2023-07-28T09:21:20;51.50;49.44;62.76;;
68945;Laerm;55984;48.790;8.990;2023-07-28T09:23:47;59.11;49.39;71.37;;
68945;Laerm;55984;48.790;8.990;2023-07-28T09:26:16;58.23;49.48;70.22;;
68945;Laerm;55984;48.790;8.990;2023-07-28T09:28:46;53.41;49.13;64.46;;
68945;Laerm;55984;48.790;8.990;2023-07-28T09:31:13;51.44;48.85;59.47;;
68945;Laerm;55984;48.790;8.990;2023-07-28T09:33:39;52.43;49.12;59.77;;
68945;Laerm;55984;48.790;8.990;2023-07-28T09:36:13;53.92;49.08;65.76;;
68945;Laerm;55984;48.790;8.990;2023-07-28T09:38:41;56.86;49.32;69.64;;
68945;Laerm;55984;48.790;8.990;2023-07-28T09:41:09;52.75;48.81;59.74;;
68945;Laerm;55984;48.790;8.990;2023-07-28T09:43:40;56.93;49.16;67.39;;
68945;Laerm;55984;48.790;8.990;2023-07-28T09:46:09;55.71;49.50;70.05;;
68945;Laerm;55984;48.790;8.990;2023-07-28T09:48:37;54.51;50.30;65.10;;
68945;Laerm;55984;48.790;8.990;2023-07-28T09:51:06;54.28;50.69;58.57;;
68945;Laerm;55984;48.790;8.990;2023-07-28T09:53:40;55.19;49.80;60.42;;
68945;Laerm;55984;48.790;8.990;2023-07-28T09:56:12;53.25;49.87;62.83;;
68945;Laerm;55984;48.790;8.990;2023-07-28T09:58:41;51.78;49.53;61.77;;
68945;Laerm;55984;48.790;8.990;2023-07-28T10:01:10;52.77;49.49;55.31;;
68945;Laerm;55984;48.790;8.990;2023-07-28T10:03:37;52.72;49.16;55.57;;
68945;Laerm;55984;48.790;8.990;2023-07-28T10:06:03;52.28;49.01;60.59;;
68945;Laerm;55984;48.790;8.990;2023-07-28T10:08:29;52.92;50.07;59.56;;
68945;Laerm;55984;48.790;8.990;2023-07-28T10:10:56;51.75;49.12;53.46;;
68945;Laerm;55984;48.790;8.990;2023-07-28T10:13:22;51.33;49.61;59.46;;
68945;Laerm;55984;48.790;8.990;2023-07-28T10:15:48;51.53;49.09;58.04;;
68945;Laerm;55984;48.790;8.990;2023-07-28T10:18:15;50.36;49.15;56.48;;
68945;Laerm;55984;48.790;8.990;2023-07-28T10:20:43;50.30;48.92;56.25;;
68945;Laerm;55984;48.790;8.990;2023-07-28T10:23:20;50.93;48.90;63.43;;
68945;Laerm;55984;48.790;8.990;2023-07-28T10:25:47;50.34;48.96;59.03;;
68945;Laerm;55984;48.790;8.990;2023-07-28T10:31:01;50.57;49.16;57.04;;
68945;Laerm;55984;48.790;8.990;2023-07-28T10:33:31;50.34;48.90;57.57;;
68945;Laerm;55984;48.790;8.990;2023-07-28T10:38:39;52.30;48.93;62.59;;
68945;Laerm;55984;48.790;8.990;2023-07-28T10:41:11;54.00;49.19;68.35;;
68945;Laerm;55984;48.790;8.990;2023-07-28T10:43:39;57.95;49.76;69.22;;
68945;Laerm;55984;48.790;8.990;2023-07-28T10:46:07;55.48;49.31;66.26;;
68945;Laerm;55984;48.790;8.990;2023-07-28T10:48:40;54.52;50.80;64.82;;
68945;Laerm;55984;48.790;8.990;2023-07-28T10:51:11;55.69;50.60;68.57;;
68945;Laerm;55984;48.790;8.990;2023-07-28T10:53:37;63.17;50.56;71.85;;
68945;Laerm;55984;48.790;8.990;2023-07-28T10:56:04;52.79;50.71;62.34;;
68945;Laerm;55984;48.790;8.990;2023-07-28T10:58:34;51.73;49.83;58.63;;
68945;Laerm;55984;48.790;8.990;2023-07-28T11:01:03;56.48;50.23;69.82;;
68945;Laerm;55984;48.790;8.990;2023-07-28T11:03:30;68.22;51.49;72.24;;
68945;Laerm;55984;48.790;8.990;2023-07-28T11:05:56;67.71;49.84;76.88;;
68945;Laerm;55984;48.790;8.990;2023-07-28T11:08:22;54.36;49.04;66.49;;
68945;Laerm;55984;48.790;8.990;2023-07-28T11:10:48;53.27;49.37;67.78;;
68945;Laerm;55984;48.790;8.990;2023-07-28T11:13:14;54.10;49.76;72.29;;
68945;Laerm;55984;48.790;8.990;2023-07-28T11:15:40;54.08;49.33;67.65;;
68945;Laerm;55984;48.790;8.990;2023-07-28T11:18:07;51.97;49.17;62.61;;
68945;Laerm;55984;48.790;8.990;2023-07-28T11:20:35;55.55;50.36;66.97;;
68945;Laerm;55984;48.790;8.990;2023-07-28T11:23:02;53.54;49.88;70.38;;
68945;Laerm;55984;48.790;8.990;2023-07-28T11:25:30;53.76;49.30;67.16;;
68945;Laerm;55984;48.790;8.990;2023-07-28T11:28:02;53.94;49.23;64.45;;
68945;Laerm;55984;48.790;8.990;2023-07-28T11:30:37;53.92;49.10;69.60;;
68945;Laerm;55984;48.790;8.990;2023-07-28T11:33:03;52.87;49.31;63.36;;
68945;Laerm;55984;48.790;8.990;2023-07-28T11:35:29;52.24;49.42;62.27;;
68945;Laerm;55984;48.790;8.990;2023-07-28T11:37:55;54.19;49.56;66.85;;
68945;Laerm;55984;48.790;8.990;2023-07-28T11:40:22;54.38;51.13;63.31;;
68945;Laerm;55984;48.790;8.990;2023-07-28T11:42:53;53.95;51.14;67.41;;
68945;Laerm;55984;48.790;8.990;2023-07-28T11:45:22;53.01;49.54;60.23;;
68945;Laerm;55984;48.790;8.990;2023-07-28T11:47:56;59.62;50.05;75.74;;
68945;Laerm;55984;48.790;8.990;2023-07-28T11:50:23;52.65;49.23;57.70;;
68945;Laerm;55984;48.790;8.990;2023-07-28T11:52:50;50.75;48.92;59.01;;
68945;Laerm;55984;48.790;8.990;2023-07-28T11:55:18;52.99;49.30;66.00;;
68945;Laerm;55984;48.790;8.990;2023-07-28T11:57:44;57.32;49.52;66.39;;
68945;Laerm;55984;48.790;8.990;2023-07-28T12:00:10;59.52;49.44;74.81;;
68945;Laerm;55984;48.790;8.990;2023-07-28T12:02:37;53.13;49.13;65.10;;
68945;Laerm;55984;48.790;8.990;2023-07-28T12:05:13;50.98;49.11;62.03;;
68945;Laerm;55984;48.790;8.990;2023-07-28T12:07:39;51.44;49.06;64.06;;
68945;Laerm;55984;48.790;8.990;2023-07-28T12:10:07;57.45;49.10;72.10;;
68945;Laerm;55984;48.790;8.990;2023-07-28T12:12:41;60.98;49.30;78.17;;
68945;Laerm;55984;48.790;8.990;2023-07-28T12:15:27;53.59;49.46;73.00;;
68945;Laerm;55984;48.790;8.990;2023-07-28T12:18:21;60.11;49.28;72.89;;
68945;Laerm;55984;48.790;8.990;2023-07-28T12:20:50;59.16;49.99;79.43;;
68945;Laerm;55984;48.790;8.990;2023-07-28T12:23:24;57.13;49.29;67.99;;
68945;Laerm;55984;48.790;8.990;2023-07-28T12:25:52;55.71;49.10;73.13;;
68945;Laerm;55984;48.790;8.990;2023-07-28T12:28:21;53.18;49.29;63.94;;
68945;Laerm;55984;48.790;8.990;2023-07-28T12:30:46;59.02;49.95;73.77;;
68945;Laerm;55984;48.790;8.990;2023-07-28T12:33:17;56.27;49.75;71.28;;
68945;Laerm;55984;48.790;8.990;2023-07-28T12:35:50;62.09;50.47;80.55;;
68945;Laerm;55984;48.790;8.990;2023-07-28T12:38:16;54.14;49.72;65.10;;
68945;Laerm;55984;48.790;8.990;2023-07-28T12:40:42;59.49;49.59;73.87;;
68945;Laerm;55984;48.790;8.990;2023-07-28T12:43:08;67.91;50.34;71.79;;
68945;Laerm;55984;48.790;8.990;2023-07-28T12:45:34;61.28;49.65;75.52;;
68945;Laerm;55984;48.790;8.990;2023-07-28T12:48:00;60.11;50.02;80.49;;
68945;Laerm;55984;48.790;8.990;2023-07-28T12:50:26;57.73;51.12;66.36;;
68945;Laerm;55984;48.790;8.990;2023-07-28T12:52:52;59.08;50.19;74.76;;
68945;Laerm;55984;48.790;8.990;2023-07-28T12:55:18;59.91;49.56;73.98;;
68945;Laerm;55984;48.790;8.990;2023-07-28T12:57:44;64.76;50.22;76.73;;
68945;Laerm;55984;48.790;8.990;2023-07-28T13:00:13;62.26;49.74;79.52;;
68945;Laerm;55984;48.790;8.990;2023-07-28T13:02:44;63.85;48.84;75.02;;
68945;Laerm;55984;48.790;8.990;2023-07-28T13:05:13;65.67;49.15;71.40;;
68945;Laerm;55984;48.790;8.990;2023-07-28T13:07:40;53.37;48.96;67.97;;
68945;Laerm;55984;48.790;8.990;2023-07-28T13:10:13;61.28;49.20;74.08;;
68945;Laerm;55984;48.790;8.990;2023-07-28T13:12:39;61.70;49.36;74.57;;
68945;Laerm;55984;48.790;8.990;2023-07-28T13:15:05;67.48;50.02;75.43;;
68945;Laerm;55984;48.790;8.990;2023-07-28T13:17:32;68.85;49.80;76.86;;
68945;Laerm;55984;48.790;8.990;2023-07-28T13:19:58;70.24;49.38;77.02;;
68945;Laerm;55984;48.790;8.990;2023-07-28T13:22:24;62.84;50.79;77.81;;
68945;Laerm;55984;48.790;8.990;2023-07-28T13:24:52;57.03;49.50;68.54;;
68945;Laerm;55984;48.790;8.990;2023-07-28T13:27:18;55.31;48.59;68.09;;
68945;Laerm;55984;48.790;8.990;2023-07-28T13:29:44;57.72;48.74;72.59;;
68945;Laerm;55984;48.790;8.990;2023-07-28T13:32:18;58.32;48.76;71.04;;
68945;Laerm;55984;48.790;8.990;2023-07-28T13:35:14;54.87;48.96;72.37;;
68945;Laerm;55984;48.790;8.990;2023-07-28T13:37:40;58.42;48.99;71.48;;
68945;Laerm;55984;48.790;8.990;2023-07-28T13:40:06;51.38;49.37;62.01;;
68945;Laerm;55984;48.790;8.990;2023-07-28T13:42:32;52.40;49.16;62.24;;
68945;Laerm;55984;48.790;8.990;2023-07-28T13:44:58;58.59;48.95;72.72;;
68945;Laerm;55984;48.790;8.990;2023-07-28T13:47:24;55.22;48.56;68.78;;
68945;Laerm;55984;48.790;8.990;2023-07-28T13:49:49;54.47;48.54;70.90;;
68945;Laerm;55984;48.790;8.990;2023-07-28T13:52:15;52.22;48.68;65.44;;